createdAt,value
2023-03-29T00:02:09.248Z,10.50
2023-03-29T00:04:36.340Z,10.50
2023-03-29T00:07:04.502Z,10.48
2023-03-29T00:09:33.083Z,10.46
2023-03-29T00:12:01.338Z,10.46
2023-03-29T00:14:30.665Z,10.44
2023-03-29T00:16:59.007Z,10.43
2023-03-29T00:19:26.131Z,10.42
2023-03-29T00:21:53.060Z,10.42
2023-03-29T00:24:21.264Z,10.40
2023-03-29T00:26:48.401Z,10.39
2023-03-29T00:29:15.909Z,10.38
2023-03-29T00:31:45.754Z,10.37
2023-03-29T00:34:12.676Z,10.36
2023-03-29T00:36:40.155Z,10.35
2023-03-29T00:39:07.291Z,10.34
2023-03-29T00:41:34.093Z,10.33
2023-03-29T00:44:04.545Z,10.31
2023-03-29T00:46:34.729Z,10.26
2023-03-29T00:49:09.660Z,10.26
2023-03-29T00:51:39.576Z,10.22
2023-03-29T00:54:10.414Z,10.23
2023-03-29T00:56:40.348Z,10.21
2023-03-29T00:59:13.746Z,10.19
2023-03-29T01:01:54.341Z,10.18
2023-03-29T01:04:33.881Z,10.17
2023-03-29T01:07:17.866Z,10.15
2023-03-29T01:09:54.888Z,10.15
2023-03-29T01:12:29.703Z,10.14
2023-03-29T01:15:04.779Z,10.13
2023-03-29T01:17:33.080Z,10.11
2023-03-29T01:20:23.165Z,10.09
2023-03-29T01:23:27.143Z,10.06
2023-03-29T01:26:14.128Z,10.02
2023-03-29T01:28:47.258Z,9.99
2023-03-29T01:31:29.292Z,9.97
2023-03-29T01:34:08.062Z,9.93
2023-03-29T01:36:49.292Z,9.90
2023-03-29T01:39:16.672Z,9.85
2023-03-29T01:42:13.808Z,9.82
2023-03-29T01:45:16.058Z,9.78
2023-03-29T01:47:59.833Z,9.75
2023-03-29T01:50:47.517Z,9.72
2023-03-29T01:53:24.663Z,9.70
2023-03-29T01:56:06.048Z,9.69
2023-03-29T01:58:38.834Z,9.69
2023-03-29T02:01:10.287Z,9.68
2023-03-29T02:03:42.715Z,9.66
2023-03-29T02:06:14.405Z,9.66
2023-03-29T02:08:42.783Z,9.65
2023-03-29T02:11:09.744Z,9.65
2023-03-29T02:13:36.729Z,9.65
2023-03-29T02:16:09.185Z,9.64
2023-03-29T02:18:36.284Z,9.63
2023-03-29T02:21:03.306Z,9.63
2023-03-29T02:23:47.498Z,9.62
2023-03-29T02:26:14.939Z,9.61
2023-03-29T02:28:43.051Z,9.61
2023-03-29T02:31:43.077Z,9.62
2023-03-29T02:34:32.834Z,9.61
2023-03-29T02:37:06.604Z,9.59
2023-03-29T02:39:34.655Z,9.57
2023-03-29T02:42:03.013Z,9.59
2023-03-29T02:44:33.503Z,9.57
2023-03-29T02:47:15.546Z,9.57
2023-03-29T02:49:43.075Z,9.56
2023-03-29T02:52:16.693Z,9.55
2023-03-29T02:54:46.618Z,9.58
2023-03-29T02:57:13.531Z,9.58
2023-03-29T02:59:43.702Z,9.59
2023-03-29T03:02:12.182Z,9.63
2023-03-29T03:04:39.000Z,9.64
2023-03-29T03:07:05.793Z,9.65
2023-03-29T03:09:32.621Z,9.65
2023-03-29T03:11:59.435Z,9.64
2023-03-29T03:14:28.107Z,9.65
2023-03-29T03:16:55.135Z,9.67
2023-03-29T03:19:22.672Z,9.69
2023-03-29T03:21:49.501Z,9.68
2023-03-29T03:24:17.589Z,9.67
2023-03-29T03:26:46.237Z,9.65
2023-03-29T03:29:15.466Z,9.61
2023-03-29T03:31:42.903Z,9.59
2023-03-29T03:34:09.732Z,9.57
2023-03-29T03:36:36.914Z,9.56
2023-03-29T03:39:07.373Z,9.56
2023-03-29T03:41:34.995Z,9.55
2023-03-29T03:44:01.790Z,9.52
2023-03-29T03:46:29.791Z,9.51
2023-03-29T03:48:57.564Z,9.49
2023-03-29T03:51:24.385Z,9.48
2023-03-29T03:53:51.615Z,9.46
2023-03-29T03:56:18.385Z,9.43
2023-03-29T03:58:45.683Z,9.41
2023-03-29T04:01:12.472Z,9.39
2023-03-29T04:03:39.387Z,9.36
2023-03-29T04:06:06.543Z,9.33
2023-03-29T04:08:33.354Z,9.33
2023-03-29T04:11:00.451Z,9.30
2023-03-29T04:13:27.880Z,9.27
2023-03-29T04:15:57.589Z,9.26
2023-03-29T04:18:26.283Z,9.26
2023-03-29T04:20:53.150Z,9.24
2023-03-29T04:23:20.014Z,9.27
2023-03-29T04:25:46.946Z,9.28
2023-03-29T04:28:13.788Z,9.31
2023-03-29T04:30:40.913Z,9.33
2023-03-29T04:33:07.755Z,9.34
2023-03-29T04:35:34.800Z,9.36
2023-03-29T04:38:01.921Z,9.41
2023-03-29T04:40:29.051Z,9.42
2023-03-29T04:42:55.857Z,9.46
2023-03-29T04:45:22.799Z,9.49
2023-03-29T04:47:49.813Z,9.50
2023-03-29T04:50:16.611Z,9.52
2023-03-29T04:52:45.314Z,9.54
2023-03-29T04:55:12.745Z,9.55
2023-03-29T04:57:39.616Z,9.57
2023-03-29T05:00:15.058Z,9.58
2023-03-29T05:02:43.998Z,9.60
2023-03-29T05:05:12.067Z,9.60
2023-03-29T05:07:39.260Z,9.62
2023-03-29T05:10:07.200Z,9.63
2023-03-29T05:12:33.986Z,9.64
2023-03-29T05:15:01.160Z,9.66
2023-03-29T05:17:28.184Z,9.67
2023-03-29T05:19:55.012Z,9.68
2023-03-29T05:22:22.045Z,9.70
2023-03-29T05:24:48.941Z,9.71
2023-03-29T05:27:16.990Z,9.73
2023-03-29T05:29:44.738Z,9.77
2023-03-29T05:32:11.816Z,9.78
2023-03-29T05:34:39.134Z,9.79
2023-03-29T05:37:06.055Z,9.82
2023-03-29T05:39:34.608Z,9.84
2023-03-29T05:42:04.387Z,9.84
2023-03-29T05:44:31.195Z,9.87
2023-03-29T05:46:58.081Z,9.87
2023-03-29T05:49:25.410Z,9.88
2023-03-29T05:51:52.318Z,9.93
2023-03-29T05:54:19.088Z,9.94
2023-03-29T05:56:45.940Z,9.96
2023-03-29T05:59:13.729Z,10.01
2023-03-29T06:01:41.722Z,10.04
2023-03-29T06:04:08.601Z,10.06
2023-03-29T06:06:36.263Z,10.10
2023-03-29T06:09:03.355Z,10.14
2023-03-29T06:11:30.462Z,10.16
2023-03-29T06:13:57.566Z,10.17
2023-03-29T06:16:25.813Z,10.21
2023-03-29T06:18:53.180Z,10.23
2023-03-29T06:21:19.931Z,10.26
2023-03-29T06:23:47.332Z,10.29
2023-03-29T06:26:14.297Z,10.32
2023-03-29T06:28:41.991Z,10.37
2023-03-29T06:31:09.970Z,10.39
2023-03-29T06:33:38.063Z,10.42
2023-03-29T06:36:05.493Z,10.48
2023-03-29T06:38:32.333Z,10.53
2023-03-29T06:41:06.305Z,10.60
2023-03-29T06:43:34.660Z,10.63
2023-03-29T06:46:02.133Z,10.68
2023-03-29T06:48:29.280Z,10.73
2023-03-29T06:50:56.385Z,10.80
2023-03-29T06:53:23.238Z,10.88
2023-03-29T06:55:52.420Z,10.97
2023-03-29T06:58:19.608Z,11.07
2023-03-29T07:00:46.822Z,11.16
2023-03-29T07:03:20.208Z,11.25
2023-03-29T07:05:47.740Z,11.36
2023-03-29T07:08:16.455Z,11.46
2023-03-29T07:10:47.527Z,11.60
2023-03-29T07:13:15.534Z,11.75
2023-03-29T07:15:43.976Z,11.85
2023-03-29T07:18:12.672Z,11.96
2023-03-29T07:20:40.404Z,12.05
2023-03-29T07:23:09.389Z,12.16
2023-03-29T07:25:38.216Z,12.29
2023-03-29T07:28:06.072Z,12.39
2023-03-29T07:30:33.219Z,12.52
2023-03-29T07:33:00.536Z,12.61
2023-03-29T07:35:28.284Z,12.65
2023-03-29T07:37:55.792Z,12.66
2023-03-29T07:40:23.730Z,12.69
2023-03-29T07:42:54.182Z,12.69
2023-03-29T07:45:26.612Z,12.72
2023-03-29T07:47:59.178Z,12.74
2023-03-29T07:50:27.712Z,12.80
2023-03-29T07:52:55.092Z,12.88
2023-03-29T07:55:22.175Z,12.93
2023-03-29T07:57:49.962Z,13.00
2023-03-29T08:00:19.529Z,13.05
2023-03-29T08:02:49.833Z,13.10
2023-03-29T08:05:26.098Z,13.10
2023-03-29T08:08:00.875Z,13.09
2023-03-29T08:10:28.387Z,13.07
2023-03-29T08:12:55.571Z,13.06
2023-03-29T08:15:22.756Z,13.05
2023-03-29T08:17:49.593Z,13.07
2023-03-29T08:20:16.432Z,13.08
2023-03-29T08:22:43.527Z,13.11
2023-03-29T08:25:11.991Z,13.14
2023-03-29T08:27:39.704Z,13.20
2023-03-29T08:30:09.323Z,13.28
2023-03-29T08:32:37.465Z,13.37
2023-03-29T08:35:09.591Z,13.46
2023-03-29T08:37:37.296Z,13.56
2023-03-29T08:40:05.505Z,13.65
2023-03-29T08:43:12.778Z,13.71
2023-03-29T08:46:07.435Z,13.76
2023-03-29T08:48:42.320Z,13.79
2023-03-29T08:51:31.692Z,13.84
2023-03-29T08:54:19.285Z,13.87
2023-03-29T08:56:48.031Z,13.90
2023-03-29T08:59:29.236Z,13.96
2023-03-29T09:01:58.742Z,14.01
2023-03-29T09:04:31.614Z,14.10
2023-03-29T09:06:59.268Z,14.14
2023-03-29T09:09:34.103Z,14.23
2023-03-29T09:12:20.164Z,14.28
2023-03-29T09:15:11.856Z,14.34
2023-03-29T09:18:17.370Z,14.42
2023-03-29T09:21:35.491Z,14.57
2023-03-29T09:24:28.915Z,14.73
2023-03-29T09:27:27.835Z,14.91
2023-03-29T09:30:25.850Z,15.01
2023-03-29T09:33:00.723Z,15.05
2023-03-29T09:35:42.498Z,15.06
2023-03-29T09:38:13.977Z,15.04
2023-03-29T09:40:47.933Z,15.00
2023-03-29T09:43:29.706Z,14.93
2023-03-29T09:46:01.777Z,14.82
2023-03-29T09:48:34.753Z,14.74
2023-03-29T09:51:03.797Z,14.68
2023-03-29T09:53:30.747Z,14.64
2023-03-29T09:55:57.514Z,14.57
2023-03-29T09:58:27.647Z,14.54
2023-03-29T10:00:59.482Z,14.48
2023-03-29T10:03:29.432Z,14.40
2023-03-29T10:05:59.900Z,14.39
2023-03-29T10:08:39.183Z,14.41
2023-03-29T10:11:34.019Z,14.46
2023-03-29T10:14:11.569Z,14.55
2023-03-29T10:16:41.930Z,14.64
2023-03-29T10:19:18.437Z,14.74
2023-03-29T10:21:48.985Z,14.78
2023-03-29T10:24:24.469Z,14.89
2023-03-29T10:26:55.532Z,14.96
2023-03-29T10:29:25.002Z,15.04
2023-03-29T10:31:52.817Z,15.10
2023-03-29T10:34:20.748Z,15.18
2023-03-29T10:36:58.985Z,15.24
2023-03-29T10:39:29.784Z,15.30
2023-03-29T10:41:59.884Z,15.39
2023-03-29T10:44:34.572Z,15.44
2023-03-29T10:47:20.629Z,15.52
2023-03-29T10:49:56.479Z,15.57
2023-03-29T10:52:24.411Z,15.63
2023-03-29T10:54:54.860Z,15.75
2023-03-29T10:57:46.053Z,15.83
2023-03-29T11:00:34.377Z,15.87
2023-03-29T11:03:28.711Z,15.90
2023-03-29T11:06:28.529Z,15.95
2023-03-29T11:08:59.661Z,16.02
2023-03-29T11:12:14.925Z,16.04
2023-03-29T11:15:13.289Z,16.00
2023-03-29T11:17:59.723Z,15.94
2023-03-29T11:20:54.066Z,15.96
2023-03-29T11:23:37.484Z,16.09
2023-03-29T11:26:18.254Z,16.22
2023-03-29T11:28:53.177Z,16.30
2023-03-29T11:31:39.668Z,16.40
2023-03-29T11:34:49.131Z,16.53
2023-03-29T11:37:38.378Z,16.68
2023-03-29T11:41:05.133Z,16.74
2023-03-29T11:44:27.265Z,16.75
2023-03-29T11:47:09.674Z,16.85
2023-03-29T11:49:49.089Z,16.90
2023-03-29T11:52:30.062Z,16.93
2023-03-29T11:55:09.457Z,16.98
2023-03-29T11:57:59.447Z,17.02
2023-03-29T12:00:34.856Z,17.05
2023-03-29T12:03:13.194Z,17.02
2023-03-29T12:05:56.924Z,17.06
2023-03-29T12:08:35.615Z,17.07
2023-03-29T12:11:21.144Z,17.11
2023-03-29T12:13:52.592Z,17.14
2023-03-29T12:16:33.388Z,17.22
2023-03-29T12:19:11.241Z,17.32
2023-03-29T12:21:39.404Z,17.44
2023-03-29T12:24:06.482Z,17.55
2023-03-29T12:27:21.180Z,17.68
2023-03-29T12:30:21.496Z,17.71
2023-03-29T12:33:09.106Z,17.67
2023-03-29T12:36:16.296Z,17.62
2023-03-29T12:38:45.047Z,17.62
2023-03-29T12:41:19.047Z,17.67
2023-03-29T12:43:48.008Z,17.72
2023-03-29T12:46:27.051Z,17.80
2023-03-29T12:48:57.833Z,17.89
2023-03-29T12:51:32.575Z,18.05
2023-03-29T12:54:14.479Z,18.15
2023-03-29T12:56:52.003Z,18.21
2023-03-29T12:59:45.623Z,18.27
2023-03-29T13:02:21.727Z,18.29
2023-03-29T13:04:55.815Z,18.30
2023-03-29T13:07:22.594Z,18.35
2023-03-29T13:09:58.542Z,18.46
2023-03-29T13:12:35.558Z,18.55
2023-03-29T13:15:07.619Z,18.67
2023-03-29T13:18:03.158Z,18.76
2023-03-29T13:20:47.736Z,18.79
2023-03-29T13:23:37.075Z,18.79
2023-03-29T13:27:21.465Z,18.72
2023-03-29T13:30:22.721Z,18.67
2023-03-29T13:32:52.508Z,18.65
2023-03-29T13:35:44.347Z,18.67
2023-03-29T13:38:22.971Z,18.64
2023-03-29T13:40:52.786Z,18.63
2023-03-29T13:43:19.410Z,18.59
2023-03-29T13:46:36.426Z,18.60
2023-03-29T13:49:20.442Z,18.56
2023-03-29T13:51:53.170Z,18.48
2023-03-29T13:54:44.036Z,18.41
2023-03-29T13:57:23.201Z,18.34
2023-03-29T14:00:48.284Z,18.26
2023-03-29T14:03:20.174Z,18.21
2023-03-29T14:05:58.347Z,18.18
2023-03-29T14:08:37.315Z,18.15
2023-03-29T14:11:08.320Z,18.12
2023-03-29T14:13:35.277Z,18.10
2023-03-29T14:16:08.965Z,18.05
2023-03-29T14:18:40.542Z,18.00
2023-03-29T14:21:08.424Z,17.97
2023-03-29T14:23:37.601Z,17.94
2023-03-29T14:26:07.998Z,17.92
2023-03-29T14:28:34.794Z,17.90
2023-03-29T14:31:01.551Z,17.92
2023-03-29T14:33:37.960Z,17.93
2023-03-29T14:36:05.742Z,17.91
2023-03-29T14:38:32.977Z,17.92
2023-03-29T14:41:01.880Z,17.96
2023-03-29T14:43:31.860Z,17.96
2023-03-29T14:46:01.261Z,17.95
2023-03-29T14:48:28.802Z,17.94
2023-03-29T14:50:55.673Z,17.96
2023-03-29T14:53:24.146Z,17.96
2023-03-29T14:55:52.962Z,17.98
2023-03-29T14:58:23.854Z,17.94
2023-03-29T15:00:52.314Z,17.93
2023-03-29T15:03:26.118Z,17.93
2023-03-29T15:06:02.790Z,17.93
2023-03-29T15:08:32.926Z,17.87
2023-03-29T15:11:00.602Z,17.84
2023-03-29T15:13:28.330Z,17.80
2023-03-29T15:16:00.754Z,17.76
2023-03-29T15:18:35.295Z,17.70
2023-03-29T15:21:02.383Z,17.62
2023-03-29T15:23:38.405Z,17.57
2023-03-29T15:26:21.547Z,17.53
2023-03-29T15:28:55.572Z,17.50
2023-03-29T15:31:32.759Z,17.50
2023-03-29T15:34:10.237Z,17.51
2023-03-29T15:36:45.026Z,17.50
2023-03-29T15:39:17.661Z,17.48
2023-03-29T15:41:46.709Z,17.45
2023-03-29T15:44:19.366Z,17.43
2023-03-29T15:46:46.595Z,17.41
2023-03-29T15:49:14.118Z,17.41
2023-03-29T15:51:41.483Z,17.40
2023-03-29T15:54:09.135Z,17.38
2023-03-29T15:56:51.946Z,17.36
2023-03-29T15:59:19.138Z,17.32
2023-03-29T16:01:46.607Z,17.31
2023-03-29T16:04:17.558Z,17.30
2023-03-29T16:06:48.570Z,17.28
2023-03-29T16:09:17.036Z,17.25
2023-03-29T16:11:44.897Z,17.23
2023-03-29T16:14:31.240Z,17.22
2023-03-29T16:16:59.853Z,17.15
2023-03-29T16:19:28.152Z,17.13
2023-03-29T16:21:55.613Z,17.10
2023-03-29T16:24:25.908Z,17.09
2023-03-29T16:26:55.699Z,17.06
2023-03-29T16:29:24.482Z,16.99
2023-03-29T16:31:52.617Z,16.97
2023-03-29T16:34:20.492Z,16.92
2023-03-29T16:36:47.916Z,16.90
2023-03-29T16:39:15.838Z,16.88
2023-03-29T16:41:43.047Z,16.83
2023-03-29T16:44:16.809Z,16.82
2023-03-29T16:46:44.539Z,16.78
2023-03-29T16:49:18.638Z,16.76
2023-03-29T16:51:48.723Z,16.69
2023-03-29T16:54:17.197Z,16.65
2023-03-29T16:56:44.456Z,16.62
2023-03-29T16:59:11.895Z,16.60
2023-03-29T17:01:38.807Z,16.60
2023-03-29T17:04:05.898Z,16.58
2023-03-29T17:06:32.787Z,16.54
2023-03-29T17:09:00.586Z,16.54
2023-03-29T17:11:28.139Z,16.52
2023-03-29T17:13:55.104Z,16.51
2023-03-29T17:16:22.077Z,16.49
2023-03-29T17:18:48.943Z,16.48
2023-03-29T17:21:16.040Z,16.45
2023-03-29T17:23:42.887Z,16.43
2023-03-29T17:26:09.713Z,16.40
2023-03-29T17:28:37.056Z,16.34
2023-03-29T17:31:07.866Z,16.29
2023-03-29T17:33:35.948Z,16.20
2023-03-29T17:36:04.533Z,16.13
2023-03-29T17:38:33.863Z,16.09
2023-03-29T17:41:01.393Z,16.06
2023-03-29T17:43:28.196Z,16.05
2023-03-29T17:45:55.500Z,16.04
2023-03-29T17:48:24.180Z,16.02
2023-03-29T17:50:51.335Z,16.00
2023-03-29T17:53:18.097Z,16.00
2023-03-29T17:55:45.804Z,15.98
2023-03-29T17:58:12.696Z,15.98
2023-03-29T18:00:39.534Z,15.97
2023-03-29T18:03:06.406Z,15.97
2023-03-29T18:05:35.347Z,15.97
2023-03-29T18:08:02.393Z,15.97
2023-03-29T18:10:29.492Z,15.96
2023-03-29T18:12:56.406Z,15.96
2023-03-29T18:15:23.174Z,15.98
2023-03-29T18:17:49.968Z,15.97
2023-03-29T18:20:17.199Z,15.96
2023-03-29T18:22:44.491Z,15.98
2023-03-29T18:25:11.340Z,15.97
2023-03-29T18:27:39.607Z,15.98
2023-03-29T18:30:08.685Z,15.98
2023-03-29T18:32:36.174Z,15.98
2023-03-29T18:35:03.386Z,15.98
2023-03-29T18:37:30.143Z,15.97
2023-03-29T18:39:56.958Z,15.98
2023-03-29T18:42:23.826Z,15.96
2023-03-29T18:44:51.183Z,15.96
2023-03-29T18:47:20.621Z,15.95
2023-03-29T18:49:47.915Z,15.93
2023-03-29T18:52:14.718Z,15.92
2023-03-29T18:54:41.714Z,15.90
2023-03-29T18:57:08.693Z,15.89
2023-03-29T18:59:38.078Z,15.89
2023-03-29T19:02:04.903Z,15.88
2023-03-29T19:04:31.756Z,15.87
2023-03-29T19:07:01.182Z,15.87
2023-03-29T19:09:27.925Z,15.87
2023-03-29T19:11:54.733Z,15.88
2023-03-29T19:14:24.039Z,15.85
2023-03-29T19:16:52.150Z,15.82
2023-03-29T19:19:21.310Z,15.80
2023-03-29T19:21:48.768Z,15.76
2023-03-29T19:24:16.565Z,15.73
2023-03-29T19:26:44.326Z,15.69
2023-03-29T19:29:11.558Z,15.67
2023-03-29T19:31:38.584Z,15.64
2023-03-29T19:34:07.730Z,15.60
2023-03-29T19:36:34.523Z,15.57
2023-03-29T19:39:01.629Z,15.53
2023-03-29T19:41:28.650Z,15.51
2023-03-29T19:43:55.609Z,15.50
2023-03-29T19:46:22.685Z,15.49
2023-03-29T19:48:51.619Z,15.48
2023-03-29T19:51:18.470Z,15.48
2023-03-29T19:53:45.304Z,15.47
2023-03-29T19:56:14.242Z,15.47
2023-03-29T19:58:41.310Z,15.44
2023-03-29T20:01:08.360Z,15.41
2023-03-29T20:03:35.972Z,15.37
2023-03-29T20:06:03.049Z,15.36
2023-03-29T20:08:29.951Z,15.33
2023-03-29T20:10:58.806Z,15.30
2023-03-29T20:13:37.501Z,15.29
2023-03-29T20:16:11.215Z,15.26
2023-03-29T20:18:38.583Z,15.26
2023-03-29T20:21:08.976Z,15.26
2023-03-29T20:23:36.324Z,15.23
2023-03-29T20:26:03.189Z,15.20
2023-03-29T20:28:30.328Z,15.16
2023-03-29T20:30:57.194Z,15.11
2023-03-29T20:33:23.997Z,15.07
2023-03-29T20:35:50.869Z,15.03
2023-03-29T20:38:17.649Z,14.98
2023-03-29T20:40:44.903Z,14.94
2023-03-29T20:43:13.284Z,14.90
2023-03-29T20:45:52.749Z,14.88
2023-03-29T20:48:22.769Z,14.84
2023-03-29T20:50:49.841Z,14.80
2023-03-29T20:53:18.170Z,14.76
2023-03-29T20:55:45.243Z,14.77
2023-03-29T20:58:12.143Z,14.74
2023-03-29T21:00:40.320Z,14.76
2023-03-29T21:03:08.441Z,14.74
2023-03-29T21:05:35.531Z,14.74
2023-03-29T21:08:03.584Z,14.73
2023-03-29T21:10:30.787Z,14.74
2023-03-29T21:13:00.448Z,14.75
2023-03-29T21:15:30.210Z,14.77
2023-03-29T21:17:57.139Z,14.77
2023-03-29T21:20:24.200Z,14.80
2023-03-29T21:22:51.104Z,14.83
2023-03-29T21:25:18.652Z,14.83
2023-03-29T21:27:45.587Z,14.83
2023-03-29T21:30:12.670Z,14.83
2023-03-29T21:32:39.475Z,14.79
2023-03-29T21:35:07.059Z,14.77
2023-03-29T21:37:33.951Z,14.75
2023-03-29T21:40:01.212Z,14.73
2023-03-29T21:42:27.983Z,14.73
2023-03-29T21:44:54.737Z,14.72
2023-03-29T21:47:21.509Z,14.69
2023-03-29T21:49:48.529Z,14.68
2023-03-29T21:52:15.295Z,14.66
2023-03-29T21:54:42.167Z,14.66
2023-03-29T21:57:09.016Z,14.65
2023-03-29T21:59:35.788Z,14.64
2023-03-29T22:02:02.641Z,14.64
2023-03-29T22:04:36.857Z,14.64
2023-03-29T22:07:06.111Z,14.66
2023-03-29T22:09:35.242Z,14.68
2023-03-29T22:12:03.079Z,14.67
2023-03-29T22:14:34.882Z,14.68
2023-03-29T22:17:05.656Z,14.70
2023-03-29T22:19:33.893Z,14.70
2023-03-29T22:22:01.475Z,14.71
2023-03-29T22:24:29.161Z,14.74
2023-03-29T22:26:57.023Z,14.74
2023-03-29T22:29:23.824Z,14.73
2023-03-29T22:31:50.810Z,14.72
2023-03-29T22:34:17.746Z,14.71
2023-03-29T22:36:44.543Z,14.71
2023-03-29T22:39:11.991Z,14.70
2023-03-29T22:41:38.892Z,14.69
2023-03-29T22:44:05.851Z,14.68
2023-03-29T22:46:32.698Z,14.68
2023-03-29T22:48:59.756Z,14.68
2023-03-29T22:51:27.122Z,14.65
2023-03-29T22:53:53.985Z,14.64
2023-03-29T22:56:21.849Z,14.64
2023-03-29T22:58:48.857Z,14.63
2023-03-29T23:01:15.724Z,14.62
2023-03-29T23:03:42.546Z,14.59
2023-03-29T23:06:09.528Z,14.59
2023-03-29T23:08:36.334Z,14.59
2023-03-29T23:11:04.413Z,14.59
2023-03-29T23:13:33.229Z,14.58
2023-03-29T23:16:02.229Z,14.59
2023-03-29T23:18:31.402Z,14.58
2023-03-29T23:21:00.156Z,14.58
2023-03-29T23:23:28.463Z,14.56
2023-03-29T23:25:55.937Z,14.55
2023-03-29T23:28:27.206Z,14.55
2023-03-29T23:31:09.347Z,14.54
2023-03-29T23:33:40.282Z,14.50
2023-03-29T23:36:14.260Z,14.49
2023-03-29T23:38:42.292Z,14.46
2023-03-29T23:41:12.670Z,14.43
2023-03-29T23:43:42.297Z,14.41
2023-03-29T23:46:16.498Z,14.40
2023-03-29T23:48:48.951Z,14.37
2023-03-29T23:51:22.624Z,14.36
2023-03-29T23:53:50.543Z,14.34
2023-03-29T23:56:17.460Z,14.33
2023-03-29T23:58:44.490Z,14.33
